Time;durP1;ratioP1;P1;durP2;ratioP2;P2;SDS_P1;SDS_P2;PMS_P1;PMS_P2;Temp;Humidity;BMP_temperature;BMP_pressure;BME280_temperature;BME280_humidity;BME280_pressure;Samples;Min_cycle;Max_cycle;Signal;HPM_P1;HPM_P2
2022/01/15 00:01:34;;;;;;;165.45;33.17;;;;;;;2.57;100.00;103300.44;4993807;28;20038;-44
2022/01/15 00:03:59;;;;;;;159.23;33.38;;;;;;;2.59;100.00;103308.31;4988233;28;20023;-45
2022/01/15 00:06:24;;;;;;;163.52;32.20;;;;;;;2.59;100.00;103301.25;4984439;28;20068;-42
2022/01/15 00:08:50;;;;;;;160.75;32.95;;;;;;;2.58;100.00;103307.47;4987056;28;20114;-45
2022/01/15 00:11:16;;;;;;;184.23;33.95;;;;;;;2.59;100.00;103298.63;4985845;28;20038;-42
2022/01/15 00:13:42;;;;;;;195.02;32.53;;;;;;;2.60;100.00;103296.88;4988430;28;20014;-47
2022/01/15 00:16:11;;;;;;;192.82;33.22;;;;;;;2.59;100.00;103297.75;4988155;28;20030;-47
2022/01/15 00:19:12;;;;;;;178.80;33.22;;;;;;;2.58;100.00;103304.81;4984529;28;20677;-47
2022/01/15 00:21:28;;;;;;;;;;;;;;;2.59;100.00;103301.25;4980841;28;20034;-43
2022/01/15 00:23:53;;;;;;;157.83;32.37;;;;;;;2.55;100.00;103297.00;4982253;28;20008;-43
2022/01/15 00:26:19;;;;;;;188.00;34.17;;;;;;;2.53;100.00;103296.19;4982817;28;20752;-44
2022/01/15 00:28:44;;;;;;;161.88;34.50;;;;;;;2.52;100.00;103299.72;4982443;28;20098;-44
2022/01/15 00:31:09;;;;;;;158.68;33.50;;;;;;;2.50;100.00;103288.38;4982858;28;20049;-47
2022/01/15 00:33:35;;;;;;;153.57;33.17;;;;;;;2.49;100.00;103285.78;4982753;28;20033;-45
2022/01/15 00:36:00;;;;;;;162.48;32.28;;;;;;;2.47;100.00;103282.34;4982744;28;20057;-44
2022/01/15 00:38:26;;;;;;;156.48;33.53;;;;;;;2.48;100.00;103289.31;4981095;28;20062;-44
2022/01/15 00:40:51;;;;;;;201.55;33.58;;;;;;;2.45;100.00;103284.16;4982060;28;20114;-46
2022/01/15 00:43:16;;;;;;;172.70;32.10;;;;;;;2.43;100.00;103277.16;4986344;28;20076;-43
2022/01/15 00:45:41;;;;;;;168.40;33.58;;;;;;;2.43;100.00;103268.38;5001805;28;20108;-42
2022/01/15 00:48:07;;;;;;;166.48;32.88;;;;;;;2.36;100.00;103256.28;5002505;28;20262;-45
2022/01/15 00:50:32;;;;;;;172.95;31.45;;;;;;;2.41;100.00;103264.91;5001805;28;20022;-46
2022/01/15 00:52:58;;;;;;;176.13;31.33;;;;;;;2.38;100.00;103259.75;5000749;28;20038;-45
2022/01/15 00:55:23;;;;;;;154.35;31.27;;;;;;;2.36;100.00;103262.44;5001781;28;20022;-43
2022/01/15 00:57:48;;;;;;;155.15;31.55;;;;;;;2.35;100.00;103258.06;5001363;28;20353;-46
2022/01/15 01:00:18;;;;;;;150.70;31.17;;;;;;;2.33;100.00;103251.97;5000170;28;20471;-43
2022/01/15 01:02:44;;;;;;;139.68;30.90;;;;;;;2.35;100.00;103258.06;4994965;28;20022;-47
2022/01/15 01:05:10;;;;;;;136.93;29.05;;;;;;;2.37;100.00;103256.22;4980862;28;20045;-43
2022/01/15 01:07:36;;;;;;;156.18;30.92;;;;;;;2.36;100.00;103253.63;4980830;28;20492;-43
2022/01/15 01:10:27;;;;;;;147.98;31.17;;;;;;;2.36;100.00;103257.16;4981775;28;20030;-44
2022/01/15 01:13:12;;;;;;;143.07;30.60;;;;;;;2.39;100.00;103261.47;4982381;28;20106;-44
2022/01/15 01:23:47;;;;;;;164.18;31.85;;;;;;;2.35;100.00;103241.38;4980870;28;20038;-42
2022/01/15 01:26:25;;;;;;;152.32;30.02;;;;;;;2.36;100.00;103232.53;4981512;28;20621;-45
2022/01/15 01:29:01;;;;;;;145.38;30.20;;;;;;;2.36;100.00;103240.44;4982216;28;20046;-46
2022/01/15 01:31:37;;;;;;;147.48;30.90;;;;;;;2.33;100.00;103233.53;4981125;28;20080;-45
2022/01/15 01:34:08;;;;;;;156.30;30.60;;;;;;;2.34;100.00;103237.00;4996863;28;20021;-46
2022/01/15 01:36:45;;;;;;;;;;;;;;;2.37;100.00;103240.41;4998820;28;20349;-44
2022/01/15 01:39:16;;;;;;;149.88;29.00;;;;;;;2.31;100.00;103234.47;4997194;28;19906;-44
2022/01/15 01:41:48;;;;;;;145.45;28.88;;;;;;;2.29;100.00;103233.66;4980725;28;20401;-47
2022/01/15 01:44:18;;;;;;;159.18;30.30;;;;;;;2.30;100.00;103227.47;4981762;28;20078;-44
2022/01/15 01:46:52;;;;;;;151.25;30.33;;;;;;;2.29;100.00;103228.38;4980474;28;20026;-44
2022/01/15 01:49:19;;;;;;;137.02;29.00;;;;;;;2.30;100.00;103220.41;4981890;28;20462;-42
2022/01/15 01:51:45;;;;;;;149.38;29.90;;;;;;;2.30;100.00;103223.06;4980804;28;20030;-47
2022/01/15 01:54:13;;;;;;;160.30;30.85;;;;;;;2.30;100.00;103217.78;4981840;28;20038;-46
2022/01/15 01:56:39;;;;;;;148.73;29.75;;;;;;;2.30;100.00;103215.16;4980457;28;20109;-45
2022/01/15 01:59:06;;;;;;;165.65;30.77;;;;;;;2.28;100.00;103214.34;4982038;28;20036;-44
2022/01/15 02:01:32;;;;;;;163.52;31.02;;;;;;;2.24;100.00;103207.41;4980408;28;20079;-47
2022/01/15 02:03:58;;;;;;;143.32;29.52;;;;;;;2.24;100.00;103208.31;4981589;28;20030;-46
2022/01/15 02:06:23;;;;;;;142.82;29.83;;;;;;;2.23;100.00;103211.84;4980859;28;20104;-43
2022/01/15 02:08:49;;;;;;;130.60;28.17;;;;;;;2.22;100.00;103198.72;4981967;28;20497;-45
2022/01/15 02:11:15;;;;;;;158.43;30.20;;;;;;;2.19;100.00;103202.31;4978749;28;20026;-46
2022/01/15 02:13:43;;;;;;;141.23;29.30;;;;;;;2.22;100.00;103210.13;4981014;28;20084;-43
2022/01/15 02:16:08;;;;;;;150.82;29.05;;;;;;;2.21;100.00;103211.03;4981441;28;20038;-44
2022/01/15 02:18:35;;;;;;;133.60;27.45;;;;;;;2.17;100.00;103208.53;4980463;28;20495;-44
2022/01/15 02:23:35;;;;;;;135.88;28.02;;;;;;;2.16;100.00;103202.41;4995391;28;20456;-44
2022/01/15 02:26:06;;;;;;;134.07;27.10;;;;;;;2.15;100.00;103202.47;4999140;28;20024;-45
2022/01/15 02:28:37;;;;;;;147.70;28.55;;;;;;;2.13;100.00;103199.00;4999677;28;20050;-46
2022/01/15 02:31:17;;;;;;;131.30;26.13;;;;;;;2.11;100.00;103192.94;5000265;28;20022;-47
2022/01/15 02:33:44;;;;;;;134.88;26.60;;;;;;;2.11;100.00;103190.28;4999810;28;20268;-43
2022/01/15 02:36:12;;;;;;;125.70;26.52;;;;;;;2.09;100.00;103187.69;4999652;28;20453;-44
2022/01/15 02:38:39;;;;;;;128.82;26.67;;;;;;;2.09;100.00;103197.38;4997222;28;20022;-43
2022/01/15 02:41:04;;;;;;;131.98;26.88;;;;;;;2.06;100.00;103187.78;4998485;28;20460;-45
2022/01/15 02:43:33;;;;;;;120.72;25.60;;;;;;;2.06;100.00;103179.88;4999352;28;20306;-48
2022/01/15 02:46:19;;;;;;;130.05;25.38;;;;;;;2.02;100.00;103168.59;4999897;28;20377;-45
2022/01/15 02:48:51;;;;;;;125.45;24.52;;;;;;;2.01;100.00;103168.63;4999269;28;20040;-44
2022/01/15 02:51:17;;;;;;;116.35;25.75;;;;;;;2.03;100.00;103172.06;4998650;28;20024;-44
2022/01/15 02:53:43;;;;;;;121.00;26.25;;;;;;;2.04;100.00;103165.91;4999453;28;20604;-44
2022/01/15 02:56:09;;;;;;;130.88;26.67;;;;;;;2.04;100.00;103143.03;4998638;28;20371;-45
2022/01/15 02:58:35;;;;;;;122.60;26.65;;;;;;;2.03;100.00;103145.72;4999710;28;20026;-44
2022/01/15 03:01:00;;;;;;;124.93;26.70;;;;;;;2.00;100.00;103135.25;4998911;28;20137;-44
2022/01/15 03:03:25;;;;;;;128.13;26.55;;;;;;;2.01;100.00;103144.91;4997753;28;20192;-48
2022/01/15 03:05:50;;;;;;;124.53;26.88;;;;;;;1.99;100.00;103136.19;5000444;28;20504;-44
2022/01/15 03:08:16;;;;;;;136.43;29.25;;;;;;;1.97;100.00;103133.59;4999047;28;20026;-49
2022/01/15 03:10:41;;;;;;;139.85;29.27;;;;;;;1.96;100.00;103123.97;4998568;28;20026;-46
2022/01/15 03:13:11;;;;;;;146.27;31.02;;;;;;;1.95;100.00;103124.00;4999071;28;20089;-48
2022/01/15 03:15:37;;;;;;;147.55;31.40;;;;;;;1.97;100.00;103125.69;4997892;28;20033;-46
2022/01/15 03:18:03;;;;;;;159.35;32.15;;;;;;;1.97;100.00;103124.81;4998949;28;20084;-47
2022/01/15 03:20:28;;;;;;;158.93;34.47;;;;;;;1.97;100.00;103114.28;4999049;28;20069;-44
2022/01/15 03:22:53;;;;;;;153.70;32.30;;;;;;;1.98;100.00;103118.63;4998028;28;20123;-45
2022/01/15 03:25:19;;;;;;;156.38;32.72;;;;;;;1.97;100.00;103124.81;4999792;28;20029;-46
2022/01/15 03:27:44;;;;;;;142.15;30.83;;;;;;;1.95;100.00;103116.09;4997950;28;20192;-47
2022/01/15 03:30:11;;;;;;;149.45;31.50;;;;;;;1.92;100.00;103119.72;4999496;28;20088;-44
2022/01/15 03:32:42;;;;;;;152.30;31.27;;;;;;;1.89;100.00;103109.25;4999460;28;20018;-46
2022/01/15 03:35:09;;;;;;;142.32;31.02;;;;;;;1.88;100.00;103117.22;4999753;28;20534;-45
2022/01/15 03:37:34;;;;;;;142.38;30.85;;;;;;;1.88;100.00;103107.53;4997786;28;20392;-47
2022/01/15 03:39:59;;;;;;;161.82;34.88;;;;;;;1.89;100.00;103111.03;4998521;28;20034;-47
2022/01/15 03:42:25;;;;;;;156.77;32.78;;;;;;;1.89;100.00;103111.03;4998656;28;20040;-43
2022/01/15 03:44:50;;;;;;;173.70;32.92;;;;;;;1.91;100.00;103106.59;4999531;28;20465;-43
2022/01/15 03:47:16;;;;;;;158.93;32.53;;;;;;;1.93;100.00;103110.03;4999220;28;20041;-43
2022/01/15 03:49:42;;;;;;;142.80;32.22;;;;;;;1.94;100.00;103103.84;4980429;28;20505;-48
2022/01/15 03:52:09;;;;;;;163.30;32.38;;;;;;;1.97;100.00;103103.72;4978158;28;20022;-43
2022/01/15 03:54:36;;;;;;;152.80;31.27;;;;;;;2.00;100.00;103101.00;4979629;28;20038;-43
2022/01/15 03:57:02;;;;;;;150.63;31.52;;;;;;;2.01;100.00;103098.31;4982705;28;20069;-43
2022/01/15 03:59:28;;;;;;;140.80;31.85;;;;;;;2.03;100.00;103098.28;4983329;28;20116;-45
2022/01/15 04:01:53;;;;;;;147.40;31.25;;;;;;;2.03;100.00;103103.53;4983098;28;20105;-44
2022/01/15 04:04:19;;;;;;;168.35;33.28;;;;;;;1.98;100.00;103090.50;4982793;28;20117;-44
2022/01/15 04:06:44;;;;;;;149.75;33.17;;;;;;;1.98;100.00;103092.28;4981931;28;20481;-47
2022/01/15 04:09:11;;;;;;;170.18;36.50;;;;;;;1.97;100.00;103087.91;4983418;28;20058;-44
2022/01/15 04:11:37;;;;;;;143.45;31.88;;;;;;;1.97;100.00;103083.53;4982107;28;20073;-44
2022/01/15 04:14:03;;;;;;;139.77;32.50;;;;;;;1.95;100.00;103076.56;4983258;28;20022;-44
2022/01/15 04:16:29;;;;;;;135.93;30.48;;;;;;;1.89;100.00;103064.47;4981156;28;20054;-44
2022/01/15 04:18:56;;;;;;;125.57;30.02;;;;;;;1.91;100.00;103067.06;4983059;28;20088;-44
2022/01/15 04:21:21;;;;;;;133.65;31.20;;;;;;;1.91;100.00;103073.19;4982145;28;20041;-43
2022/01/15 04:23:46;;;;;;;132.32;31.05;;;;;;;1.91;100.00;103073.19;4982861;28;20422;-45
2022/01/15 04:26:11;;;;;;;119.55;30.08;;;;;;;1.89;100.00;103067.09;4982017;28;20457;-47
2022/01/15 04:28:37;;;;;;;135.35;31.00;;;;;;;1.91;100.00;103070.53;4981722;28;20441;-44
2022/01/15 04:31:06;;;;;;;130.05;32.78;;;;;;;1.89;100.00;103071.53;4982937;28;20026;-46
2022/01/15 04:33:36;;;;;;;122.00;29.90;;;;;;;1.89;100.00;103063.63;4982195;28;20247;-45
2022/01/15 04:36:03;;;;;;;109.85;28.42;;;;;;;1.87;100.00;103061.03;4981492;28;20044;-49
2022/01/15 04:38:30;;;;;;;122.03;28.17;;;;;;;1.86;100.00;103057.50;4982254;28;20349;-44
2022/01/15 04:40:56;;;;;;;120.47;29.08;;;;;;;1.88;100.00;103059.25;4981400;28;20385;-45
2022/01/15 04:43:21;;;;;;;124.25;28.85;;;;;;;1.89;100.00;103053.06;4982996;28;20026;-44
2022/01/15 04:45:46;;;;;;;123.90;30.33;;;;;;;1.90;100.00;103055.66;4982160;28;20401;-45
2022/01/15 04:48:12;;;;;;;123.22;31.65;;;;;;;1.91;100.00;103057.38;4982605;28;20096;-45
2022/01/15 04:50:37;;;;;;;133.18;29.98;;;;;;;1.93;100.00;103055.53;4981050;28;20538;-46
2022/01/15 04:53:04;;;;;;;115.57;29.90;;;;;;;1.95;100.00;103055.50;4998980;28;20029;-46
2022/01/15 04:55:30;;;;;;;104.05;29.33;;;;;;;1.97;100.00;103051.03;5001040;28;20026;-48
2022/01/15 04:57:55;;;;;;;109.43;27.40;;;;;;;1.97;100.00;103041.38;5016467;28;20044;-48
2022/01/15 05:00:21;;;;;;;106.05;27.02;;;;;;;1.99;100.00;103046.59;5002398;28;20124;-44
2022/01/15 05:02:46;;;;;;;108.32;27.38;;;;;;;1.98;100.00;103037.78;5001304;28;20416;-47
2022/01/15 05:05:13;;;;;;;113.72;27.60;;;;;;;2.00;100.00;103041.28;5000687;28;20095;-45
2022/01/15 05:07:39;;;;;;;121.28;29.73;;;;;;;1.99;100.00;103043.94;4999286;28;20279;-45
2022/01/15 05:10:06;;;;;;;113.32;26.63;;;;;;;1.99;100.00;103036.06;5001473;28;20400;-46
2022/01/15 05:12:39;;;;;;;104.18;26.92;;;;;;;2.01;100.00;103036.84;5000906;28;20068;-47
2022/01/15 05:15:05;;;;;;;119.88;30.08;;;;;;;2.01;100.00;103028.94;5000920;28;20465;-44
2022/01/15 05:17:30;;;;;;;125.70;30.35;;;;;;;2.01;100.00;103021.03;5000987;28;20045;-45
2022/01/15 05:19:55;;;;;;;120.78;30.73;;;;;;;2.03;100.00;103024.47;5001230;28;20027;-45
2022/01/15 05:22:21;;;;;;;129.50;32.85;;;;;;;2.04;100.00;103023.56;5000580;28;20033;-45
2022/01/15 05:24:46;;;;;;;120.85;31.00;;;;;;;2.05;100.00;103022.66;5000477;28;20056;-45
2022/01/15 05:27:11;;;;;;;126.15;32.00;;;;;;;2.05;100.00;103009.47;5000405;28;20531;-45
2022/01/15 05:29:36;;;;;;;121.03;31.60;;;;;;;2.05;100.00;103004.19;4999173;28;20056;-44
2022/01/15 05:32:02;;;;;;;124.35;32.15;;;;;;;2.06;100.00;103008.56;5000823;28;20026;-47
2022/01/15 05:34:27;;;;;;;129.77;32.78;;;;;;;2.04;100.00;103010.41;5000485;28;20029;-43
2022/01/15 05:36:53;;;;;;;123.95;32.60;;;;;;;1.99;100.00;102994.72;5000608;28;20025;-46
2022/01/15 05:39:18;;;;;;;127.75;30.33;;;;;;;2.05;100.00;102996.28;5001543;28;20102;-48
2022/01/15 05:41:43;;;;;;;125.75;31.25;;;;;;;2.05;100.00;102991.03;4999039;28;20110;-44
2022/01/15 05:44:09;;;;;;;127.38;31.35;;;;;;;2.06;100.00;102979.56;5000783;28;20030;-45
2022/01/15 05:46:34;;;;;;;127.47;31.65;;;;;;;2.08;100.00;102977.75;5000669;28;20099;-43
2022/01/15 05:49:03;;;;;;;128.43;32.53;;;;;;;2.06;100.00;102982.22;5000731;28;20030;-44
2022/01/15 05:51:30;;;;;;;138.88;34.28;;;;;;;2.04;100.00;102974.34;4999350;28;20095;-42
2022/01/15 05:54:00;;;;;;;142.52;35.40;;;;;;;2.06;100.00;102976.94;4999987;28;20311;-44
2022/01/15 05:56:26;;;;;;;137.10;33.25;;;;;;;2.04;100.00;102974.34;4999806;28;20030;-47
2022/01/15 05:58:52;;;;;;;153.68;34.10;;;;;;;2.03;100.00;102966.50;5001328;28;20022;-44
2022/01/15 06:01:17;;;;;;;146.88;36.20;;;;;;;2.03;100.00;102964.72;5000278;28;20029;-44
2022/01/15 06:03:42;;;;;;;157.85;34.75;;;;;;;2.03;100.00;102966.50;4999879;28;20311;-45
2022/01/15 06:06:08;;;;;;;146.23;33.67;;;;;;;1.99;100.00;102968.38;4998970;28;20533;-45
2022/01/15 06:08:33;;;;;;;141.25;34.20;;;;;;;2.02;100.00;102970.91;5000445;28;20026;-44
2022/01/15 06:10:58;;;;;;;163.05;35.13;;;;;;;1.97;100.00;102961.41;4999687;28;20030;-44
2022/01/15 06:13:24;;;;;;;163.10;33.70;;;;;;;2.02;100.00;102964.75;4999938;28;20116;-43
2022/01/15 06:15:49;;;;;;;154.75;33.53;;;;;;;2.03;100.00;102958.59;5000866;28;20053;-44
2022/01/15 06:18:14;;;;;;;146.13;31.75;;;;;;;2.04;100.00;102963.81;4998908;28;20033;-45
2022/01/15 06:20:39;;;;;;;155.25;34.80;;;;;;;2.05;100.00;102965.53;4999674;28;20037;-45
2022/01/15 06:23:05;;;;;;;156.73;34.45;;;;;;;2.03;100.00;102953.31;4999971;28;20325;-47
2022/01/15 06:25:30;;;;;;;161.63;34.70;;;;;;;2.03;100.00;102956.81;4995058;28;20032;-43
2022/01/15 06:27:55;;;;;;;161.57;34.17;;;;;;;2.03;100.00;102958.59;4979027;28;20067;-46
2022/01/15 06:30:20;;;;;;;172.60;34.13;;;;;;;1.99;100.00;102955.19;4986086;28;20449;-46
2022/01/15 06:32:46;;;;;;;162.60;36.88;;;;;;;2.00;100.00;102958.69;4979301;28;20030;-45
2022/01/15 06:35:13;;;;;;;159.43;35.72;;;;;;;1.99;100.00;102959.63;4980361;28;20025;-43
2022/01/15 06:37:39;;;;;;;161.90;35.55;;;;;;;1.97;100.00;102949.13;4979052;28;20109;-48
2022/01/15 06:40:06;;;;;;;171.82;37.33;;;;;;;1.96;100.00;102944.75;4988217;28;20125;-44
2022/01/15 06:42:32;;;;;;;167.65;36.58;;;;;;;1.93;100.00;102939.59;4982533;28;20029;-44
2022/01/15 06:44:57;;;;;;;176.25;36.35;;;;;;;1.93;100.00;102944.00;4979121;28;20035;-42
2022/01/15 06:47:23;;;;;;;177.50;36.15;;;;;;;1.92;100.00;102951.06;4980140;28;20018;-45
2022/01/15 06:49:48;;;;;;;167.75;35.47;;;;;;;1.91;100.00;102937.94;4988072;28;20115;-48
2022/01/15 06:52:14;;;;;;;169.50;35.08;;;;;;;1.91;100.00;102936.16;4998858;28;20112;-44
2022/01/15 06:54:39;;;;;;;157.27;34.72;;;;;;;1.91;100.00;102933.53;4998931;28;20129;-46
2022/01/15 06:57:05;;;;;;;157.65;34.70;;;;;;;1.91;100.00;102938.78;4993559;28;20704;-47
2022/01/15 06:59:30;;;;;;;145.43;31.98;;;;;;;1.90;100.00;102925.66;4978476;28;20488;-44
2022/01/15 07:01:55;;;;;;;136.07;30.92;;;;;;;1.91;100.00;102930.03;4979818;28;20022;-46
2022/01/15 07:04:21;;;;;;;138.38;30.05;;;;;;;1.89;100.00;102927.44;4980191;28;20549;-47
2022/01/15 07:06:46;;;;;;;150.80;32.95;;;;;;;1.92;100.00;102932.63;4978549;28;20105;-44
2022/01/15 07:09:11;;;;;;;141.48;30.33;;;;;;;1.92;100.00;102931.75;4981260;28;20030;-49
2022/01/15 07:11:36;;;;;;;144.55;30.60;;;;;;;1.92;100.00;102942.28;4978523;28;20495;-44
2022/01/15 07:14:02;;;;;;;138.18;29.13;;;;;;;1.92;100.00;102931.75;4979633;28;20084;-46
2022/01/15 07:16:27;;;;;;;137.30;29.15;;;;;;;1.94;100.00;102941.31;4974603;28;20464;-46
2022/01/15 07:18:52;;;;;;;141.60;28.85;;;;;;;1.95;100.00;102939.53;4990122;28;20086;-47
2022/01/15 07:21:17;;;;;;;142.73;29.05;;;;;;;1.96;100.00;102944.75;4986325;28;20029;-42
2022/01/15 07:23:43;;;;;;;123.47;27.73;;;;;;;1.96;100.00;102941.28;4984882;28;20065;-44
2022/01/15 07:26:08;;;;;;;158.93;28.55;;;;;;;1.96;100.00;102942.13;4983475;28;20578;-46
2022/01/15 07:28:35;;;;;;;141.40;29.73;;;;;;;1.93;100.00;102936.09;4985975;28;20053;-46
2022/01/15 07:31:00;;;;;;;140.13;29.42;;;;;;;1.91;100.00;102930.03;4987078;28;20553;-44
2022/01/15 07:33:26;;;;;;;154.63;30.45;;;;;;;1.92;100.00;102935.25;4994815;28;20018;-44
2022/01/15 07:35:52;;;;;;;173.35;30.58;;;;;;;1.91;100.00;102932.66;4996699;28;20090;-45
2022/01/15 07:38:20;;;;;;;179.85;33.90;;;;;;;1.88;100.00;102932.78;4998210;28;20534;-43
2022/01/15 07:40:46;;;;;;;182.30;32.42;;;;;;;1.83;100.00;102936.44;4998448;28;20033;-42
2022/01/15 07:43:11;;;;;;;201.05;35.25;;;;;;;1.80;100.00;102939.16;4998701;28;20192;-43
2022/01/15 07:45:37;;;;;;;193.30;32.05;;;;;;;1.79;100.00;102940.06;4998946;28;20034;-45
2022/01/15 07:48:02;;;;;;;176.65;32.47;;;;;;;1.77;100.00;102931.38;4998293;28;20018;-44
2022/01/15 07:50:27;;;;;;;216.57;31.63;;;;;;;1.78;100.00;102934.84;4998162;28;20038;-43
2022/01/15 07:52:54;;;;;;;148.70;30.42;;;;;;;1.75;100.00;102935.84;4997754;28;20460;-42
2022/01/15 07:55:21;;;;;;;180.32;30.90;;;;;;;1.73;100.00;102937.66;4998748;28;20025;-43
2022/01/15 07:57:46;;;;;;;193.70;31.42;;;;;;;1.72;100.00;102945.63;4998079;28;20041;-44
2022/01/15 08:00:13;;;;;;;193.90;31.63;;;;;;;1.71;100.00;102942.09;4998088;28;20025;-44
2022/01/15 08:02:39;;;;;;;132.48;27.35;;;;;;;1.67;100.00;102938.72;4998586;28;20385;-42
2022/01/15 08:05:05;;;;;;;133.88;26.88;;;;;;;1.68;100.00;102944.84;4999135;28;20460;-42
2022/01/15 08:07:30;;;;;;;143.30;28.98;;;;;;;1.70;100.00;102944.78;4997671;28;20088;-44
2022/01/15 08:09:55;;;;;;;146.35;28.92;;;;;;;1.71;100.00;102939.47;4998010;28;20034;-44
2022/01/15 08:12:22;;;;;;;163.65;27.85;;;;;;;1.66;100.00;102936.13;4997906;28;20116;-43
2022/01/15 08:14:47;;;;;;;198.35;27.75;;;;;;;1.67;100.00;102937.88;4996241;28;20096;-45
2022/01/15 08:17:12;;;;;;;164.15;26.92;;;;;;;1.63;100.00;102923.94;4998723;28;20052;-47
2022/01/15 08:19:38;;;;;;;257.05;31.70;;;;;;;1.57;100.00;102936.44;4998326;28;20151;-44
2022/01/15 08:22:03;;;;;;;183.52;24.50;;;;;;;1.56;100.00;102929.44;4998048;28;20033;-46
2022/01/15 08:24:28;;;;;;;155.38;23.38;;;;;;;1.53;100.00;102932.19;4998695;28;20038;-44
2022/01/15 08:26:54;;;;;;;156.15;23.90;;;;;;;1.49;100.00;102921.78;4996908;28;20026;-43
2022/01/15 08:29:19;;;;;;;248.90;26.50;;;;;;;1.45;100.00;102930.66;4996906;28;20718;-44
2022/01/15 08:31:44;;;;;;;149.77;21.10;;;;;;;1.47;100.00;102930.63;4996602;28;20103;-44
2022/01/15 08:34:10;;;;;;;143.50;22.45;;;;;;;1.45;100.00;102930.66;4997073;28;20036;-47
2022/01/15 08:36:36;;;;;;;164.93;23.08;;;;;;;1.42;100.00;102930.75;4997608;28;20123;-46
2022/01/15 08:39:04;;;;;;;188.77;20.67;;;;;;;1.42;100.00;102930.75;4997866;28;20049;-45
2022/01/15 08:41:30;;;;;;;152.45;20.23;;;;;;;1.44;100.00;102931.59;4998871;28;20927;-45
2022/01/15 08:43:55;;;;;;;143.00;19.55;;;;;;;1.47;100.00;102935.88;5001890;28;20034;-45
2022/01/15 08:46:21;;;;;;;126.13;19.25;;;;;;;1.53;100.00;102942.72;5002304;28;20103;-47
2022/01/15 08:48:46;;;;;;;115.85;19.35;;;;;;;1.54;100.00;102940.03;5001511;28;20022;-44
2022/01/15 08:51:11;;;;;;;193.55;18.85;;;;;;;1.52;100.00;102943.63;5000782;28;20030;-42
2022/01/15 08:53:37;;;;;;;161.05;17.23;;;;;;;1.49;100.00;102926.16;5001608;28;20514;-46
2022/01/15 08:56:03;;;;;;;114.32;16.25;;;;;;;1.48;100.00;102937.63;5001387;28;20469;-45
2022/01/15 08:58:29;;;;;;;103.38;17.08;;;;;;;1.47;100.00;102927.97;5001052;28;21004;-44
2022/01/15 09:00:55;;;;;;;69.65;17.65;;;;;;;1.48;100.00;102930.56;5001730;28;20041;-47
2022/01/15 09:03:22;;;;;;;120.45;19.77;;;;;;;1.46;100.00;102928.88;4994331;28;20041;-44
2022/01/15 09:05:47;;;;;;;100.03;17.73;;;;;;;1.50;100.00;102922.63;4980234;28;20030;-45
2022/01/15 09:08:12;;;;;;;73.68;17.10;;;;;;;1.52;100.00;102928.69;4982088;28;20446;-43
2022/01/15 09:10:41;;;;;;;91.38;17.15;;;;;;;1.54;100.00;102929.50;4981277;28;20047;-43
2022/01/15 09:13:07;;;;;;;112.60;17.30;;;;;;;1.56;100.00;102932.09;4981675;28;20026;-45
2022/01/15 09:15:32;;;;;;;167.27;17.95;;;;;;;1.55;100.00;102917.22;4983739;28;20019;-45
2022/01/15 09:17:58;;;;;;;80.22;17.08;;;;;;;1.54;100.00;102924.22;4981315;28;20030;-49
2022/01/15 09:20:23;;;;;;;86.80;17.95;;;;;;;1.58;100.00;102927.63;4983449;28;20286;-43
2022/01/15 09:22:48;;;;;;;92.78;16.77;;;;;;;1.53;100.00;102914.63;4981749;28;20313;-48
2022/01/15 09:25:14;;;;;;;78.95;16.42;;;;;;;1.52;100.00;102905.00;4981451;28;20114;-44
2022/01/15 09:30:23;;;;;;;76.90;17.02;;;;;;;1.51;100.00;102907.69;4982534;28;20057;-47
2022/01/15 09:32:50;;;;;;;61.50;17.45;;;;;;;1.47;100.00;102899.03;4982103;28;20026;-44
2022/01/15 09:35:18;;;;;;;57.83;17.60;;;;;;;1.50;100.00;102898.91;4980209;28;20061;-45
2022/01/15 09:37:43;;;;;;;71.53;18.58;;;;;;;1.49;100.00;102895.44;4981452;28;20034;-43
2022/01/15 09:40:10;;;;;;;81.93;18.55;;;;;;;1.47;100.00;102896.38;4980088;28;20120;-43
2022/01/15 09:42:38;;;;;;;68.28;18.40;;;;;;;1.39;100.00;102899.28;4981208;28;20022;-43
2022/01/15 09:45:06;;;;;;;70.68;18.13;;;;;;;1.43;100.00;102906.16;4981446;28;20034;-44
2022/01/15 09:47:32;;;;;;;71.18;18.20;;;;;;;1.48;100.00;102904.25;4982444;28;20449;-43
2022/01/15 09:49:59;;;;;;;135.18;34.28;;;;;;;1.48;100.00;102908.66;5000914;28;20372;-43
2022/01/15 09:52:24;;;;;;;73.60;19.63;;;;;;;1.45;100.00;102904.34;4997382;28;20034;-46
2022/01/15 09:54:50;;;;;;;83.32;19.67;;;;;;;1.44;100.00;102902.63;5000906;28;20029;-42
2022/01/15 09:57:16;;;;;;;79.03;20.70;;;;;;;1.44;100.00;102905.25;5000174;28;20104;-47
2022/01/15 09:59:42;;;;;;;119.78;31.85;;;;;;;1.46;100.00;102908.69;5000712;28;20421;-45
2022/01/15 10:02:07;;;;;;;68.03;22.73;;;;;;;1.46;100.00;102900.81;5001143;28;20018;-47
2022/01/15 10:04:35;;;;;;;69.90;20.15;;;;;;;1.47;100.00;102913.03;5000000;28;20104;-49
2022/01/15 10:07:08;;;;;;;72.22;20.02;;;;;;;1.50;100.00;102901.56;4999727;28;20025;-50
2022/01/15 10:09:34;;;;;;;67.20;20.55;;;;;;;1.49;100.00;102899.81;4986006;28;20216;-47
2022/01/15 10:11:59;;;;;;;67.45;23.48;;;;;;;1.51;100.00;102903.28;4978640;28;20118;-47
2022/01/15 10:14:32;;;;;;;67.78;20.30;;;;;;;1.51;100.00;102913.81;4985715;28;20043;-46
2022/01/15 10:16:59;;;;;;;89.55;23.50;;;;;;;1.51;100.00;102913.81;4980324;28;20049;-49
2022/01/15 10:19:27;;;;;;;85.88;26.13;;;;;;;1.55;100.00;102899.63;4980468;28;20454;-49
2022/01/15 10:22:04;;;;;;;74.30;25.40;;;;;;;1.62;100.00;102906.41;4979609;28;20164;-46
2022/01/15 10:24:30;;;;;;;75.25;24.40;;;;;;;1.66;100.00;102907.16;4980464;28;20049;-44
2022/01/15 10:26:55;;;;;;;80.57;25.65;;;;;;;1.64;100.00;102903.72;4979288;28;20018;-49
2022/01/15 10:29:20;;;;;;;84.40;27.83;;;;;;;1.53;100.00;102892.69;4980765;28;20046;-47
2022/01/15 10:31:45;;;;;;;76.45;24.55;;;;;;;1.44;100.00;102899.13;4980367;28;20477;-46
2022/01/15 10:34:37;;;;;;;75.68;23.33;;;;;;;1.44;100.00;102892.09;4980371;28;20151;-44
2022/01/15 10:37:08;;;;;;;74.25;24.17;;;;;;;1.42;100.00;102887.78;4987362;28;20084;-46
2022/01/15 10:39:33;;;;;;;114.35;25.98;;;;;;;1.40;100.00;102886.97;4999411;28;20578;-45
2022/01/15 10:41:58;;;;;;;75.88;26.25;;;;;;;1.44;100.00;102889.47;4999212;28;20038;-46
2022/01/15 10:44:35;;;;;;;80.70;26.30;;;;;;;1.49;100.00;102887.53;4999406;28;20038;-49
2022/01/15 10:47:09;;;;;;;85.93;24.88;;;;;;;1.52;100.00;102890.97;4990766;28;20038;-47
2022/01/15 10:49:37;;;;;;;85.10;24.13;;;;;;;1.48;100.00;102893.72;4999759;28;20057;-46
2022/01/15 10:52:18;;;;;;;77.53;24.92;;;;;;;1.47;100.00;102891.97;4998178;28;20376;-47
2022/01/15 10:54:50;;;;;;;69.60;23.40;;;;;;;1.53;100.00;102884.78;4997052;28;20014;-49
2022/01/15 10:57:18;;;;;;;79.57;24.25;;;;;;;1.60;100.00;102883.69;4998283;28;20053;-46
2022/01/15 11:00:11;;;;;;;76.22;25.50;;;;;;;1.64;100.00;102878.22;4998898;28;20029;-48
2022/01/15 11:02:38;;;;;;;105.68;26.55;;;;;;;1.66;100.00;102876.44;4999385;28;20613;-47
2022/01/15 11:05:19;;;;;;;85.88;25.40;;;;;;;1.71;100.00;102876.25;4990948;28;20088;-46
2022/01/15 11:07:45;;;;;;;87.75;27.23;;;;;;;1.76;100.00;102871.69;4979528;28;20057;-44
2022/01/15 11:10:10;;;;;;;85.53;27.50;;;;;;;1.78;100.00;102859.34;4978916;28;20437;-45
2022/01/15 11:12:36;;;;;;;78.47;26.85;;;;;;;1.82;100.00;102854.81;4979460;28;20030;-47
2022/01/15 11:15:02;;;;;;;105.38;38.38;;;;;;;1.89;100.00;102851.03;4980173;28;20022;-44
2022/01/15 11:17:27;;;;;;;95.35;32.38;;;;;;;1.97;100.00;102856.00;4979313;28;20026;-45